Time;durP1;ratioP1;P1;durP2;ratioP2;P2;SDS_P1;SDS_P2;PMS_P1;PMS_P2;Temp;Humidity;BMP_temperature;BMP_pressure;BME280_temperature;BME280_humidity;BME280_pressure;Samples;Min_cycle;Max_cycle;Signal;HPM_P1;HPM_P2
2022/01/22 00:02:13;;;;;;;17.95;12.85;;;-0.30;99.90;;;;;;5025439;28;20485;-69
2022/01/22 00:04:40;;;;;;;20.30;13.55;;;-0.30;99.90;;;;;;5008445;28;20054;-69
2022/01/22 00:07:10;;;;;;;14.95;12.90;;;-0.30;99.90;;;;;;5009625;28;20510;-70
2022/01/22 00:09:40;;;;;;;14.85;13.32;;;-0.40;99.90;;;;;;5010405;28;20153;-70
2022/01/22 00:12:20;;;;;;;15.98;13.27;;;-0.40;99.90;;;;;;5009187;28;20479;-70
2022/01/22 00:14:48;;;;;;;17.02;13.95;;;-0.40;99.90;;;;;;4993178;28;20082;-70
2022/01/22 00:17:15;;;;;;;17.33;13.55;;;-0.40;99.90;;;;;;4992827;28;20147;-70
2022/01/22 00:19:43;;;;;;;17.45;13.45;;;-0.40;99.90;;;;;;5011165;28;20048;-68
2022/01/22 00:22:11;;;;;;;18.90;11.05;;;-0.40;99.90;;;;;;5008770;28;20042;-69
2022/01/22 00:24:40;;;;;;;14.50;10.88;;;-0.40;99.90;;;;;;5009020;28;20056;-69
2022/01/22 00:27:07;;;;;;;13.38;10.55;;;-0.40;99.90;;;;;;5010926;28;20050;-69
2022/01/22 00:29:34;;;;;;;16.75;10.52;;;-0.40;99.90;;;;;;4993012;28;20481;-69
2022/01/22 00:32:03;;;;;;;14.18;10.30;;;-0.40;99.90;;;;;;4998745;28;20510;-70
2022/01/22 00:34:30;;;;;;;40.40;36.45;;;-0.40;99.90;;;;;;5009597;28;20156;-70
2022/01/22 00:36:58;;;;;;;18.08;13.70;;;-0.40;99.90;;;;;;5010893;28;20510;-70
2022/01/22 00:39:26;;;;;;;15.18;13.60;;;-0.40;99.90;;;;;;4989409;28;20531;-70
2022/01/22 00:41:54;;;;;;;16.27;14.55;;;-0.30;99.90;;;;;;4996770;28;20054;-69
2022/01/22 00:44:21;;;;;;;14.82;13.35;;;-0.30;99.90;;;;;;4990863;28;20206;-69
2022/01/22 00:46:48;;;;;;;14.68;13.18;;;-0.30;99.90;;;;;;4993845;28;20061;-69
2022/01/22 00:49:16;;;;;;;14.20;12.90;;;-0.30;99.90;;;;;;4991678;28;20046;-71
2022/01/22 00:51:43;;;;;;;18.63;14.80;;;-0.20;99.90;;;;;;5013733;28;20049;-70
2022/01/22 00:54:11;;;;;;;14.70;13.30;;;-0.20;99.90;;;;;;5015222;28;20092;-70
2022/01/22 00:56:39;;;;;;;14.68;12.55;;;-0.20;99.90;;;;;;5013786;28;20118;-70
2022/01/22 00:59:07;;;;;;;17.33;14.15;;;-0.10;99.90;;;;;;5013004;28;20537;-70
2022/01/22 01:01:34;;;;;;;15.10;13.50;;;-0.10;99.90;;;;;;4995314;28;20052;-70
2022/01/22 01:04:03;;;;;;;13.93;12.45;;;-0.10;99.90;;;;;;5013517;28;20388;-69
2022/01/22 01:06:31;;;;;;;12.80;11.70;;;-0.10;99.90;;;;;;5013345;28;20049;-69
2022/01/22 01:09:00;;;;;;;13.40;12.10;;;-0.10;99.90;;;;;;5013427;28;20057;-71
2022/01/22 01:11:31;;;;;;;13.18;11.88;;;0.00;99.90;;;;;;5010909;28;20057;-69
2022/01/22 01:14:03;;;;;;;13.35;12.07;;;0.00;99.90;;;;;;4997002;28;20120;-70
2022/01/22 01:16:56;;;;;;;13.10;11.90;;;0.00;99.90;;;;;;4992153;28;20455;-70
2022/01/22 01:33:17;;;;;;;17.10;13.57;;;0.10;99.90;;;;;;5014305;28;20041;-69
2022/01/22 01:35:45;;;;;;;12.95;11.95;;;0.10;99.90;;;;;;5011247;28;20058;-69
2022/01/22 01:38:13;;;;;;;14.30;12.88;;;0.10;99.90;;;;;;5012292;28;20042;-70
2022/01/22 01:40:44;;;;;;;13.38;12.27;;;0.10;99.90;;;;;;5028045;28;20066;-70
2022/01/22 01:43:19;;;;;;;12.80;11.65;;;0.10;99.90;;;;;;5012706;28;20053;-69
2022/01/22 01:45:52;;;;;;;11.90;10.90;;;0.10;99.90;;;;;;4994475;28;20054;-69
2022/01/22 01:48:24;;;;;;;12.88;11.68;;;0.10;99.90;;;;;;5028332;28;20518;-70
2022/01/22 01:50:51;;;;;;;13.40;12.32;;;0.10;99.90;;;;;;4996258;28;20054;-69
2022/01/22 01:53:29;;;;;;;12.10;10.93;;;0.10;99.90;;;;;;4996220;28;20564;-69
2022/01/22 01:57:23;;;;;;;12.90;11.80;;;0.10;99.90;;;;;;5001582;28;20141;-69
2022/01/22 01:58:49;;;;;;;12.15;11.07;;;0.10;99.90;;;;;;4974993;28;20574;-70
2022/01/22 02:01:20;;;;;;;11.90;11.00;;;0.10;99.90;;;;;;4958607;28;20149;-70
2022/01/22 02:03:47;;;;;;;26.83;24.52;;;0.20;99.90;;;;;;4995153;28;20115;-70
2022/01/22 02:06:19;;;;;;;8.80;7.78;;;0.20;99.90;;;;;;4979492;28;20045;-69
2022/01/22 02:08:47;;;;;;;8.70;8.00;;;0.20;99.90;;;;;;5013667;28;20053;-69
2022/01/22 02:11:24;;;;;;;9.00;8.25;;;0.20;99.90;;;;;;4995724;28;20049;-69
2022/01/22 02:23:29;;;;;;;9.55;8.70;;;0.20;99.90;;;;;;5011669;28;20054;-70
2022/01/22 02:25:33;;;;;;;9.85;8.95;;;0.20;99.90;;;;;;4995204;28;20049;-70
2022/01/22 02:28:02;;;;;;;9.50;8.70;;;0.20;99.90;;;;;;4995619;28;20131;-69
2022/01/22 02:30:36;;;;;;;9.48;8.63;;;0.20;99.90;;;;;;4995318;28;20080;-69
2022/01/22 02:33:17;;;;;;;9.70;8.88;;;0.20;99.90;;;;;;5002356;28;20617;-70
2022/01/22 02:35:51;;;;;;;12.98;8.25;;;0.10;99.90;;;;;;4990699;28;20507;-70
2022/01/22 02:38:26;;;;;;;9.98;8.90;;;0.10;99.90;;;;;;4974924;28;20062;-70
2022/01/22 02:40:53;;;;;;;19.55;17.90;;;0.20;99.90;;;;;;4995859;28;20120;-69
2022/01/22 02:43:21;;;;;;;7.88;7.18;;;0.20;99.90;;;;;;4994504;28;20518;-70
2022/01/22 02:45:49;;;;;;;9.65;8.85;;;0.20;99.90;;;;;;4995295;28;20470;-70
2022/01/22 02:48:16;;;;;;;10.90;8.63;;;0.20;99.90;;;;;;5008851;28;20050;-70
2022/01/22 02:50:44;;;;;;;12.20;11.00;;;0.10;99.90;;;;;;5008658;28;20050;-69
2022/01/22 02:53:14;;;;;;;11.13;10.32;;;0.10;99.90;;;;;;4993699;28;20560;-69
2022/01/22 02:55:45;;;;;;;11.90;10.90;;;0.10;99.90;;;;;;5012735;28;20054;-70
2022/01/22 02:58:14;;;;;;;12.95;10.93;;;0.20;99.90;;;;;;5027787;28;20151;-70
2022/01/22 03:00:41;;;;;;;12.45;11.43;;;0.10;99.90;;;;;;5025750;28;20080;-70
2022/01/22 03:03:10;;;;;;;11.55;10.50;;;0.20;99.90;;;;;;5009607;28;20104;-71
2022/01/22 03:05:37;;;;;;;11.93;10.90;;;0.10;99.90;;;;;;4994678;28;20054;-71
2022/01/22 03:08:08;;;;;;;11.65;10.65;;;0.20;99.90;;;;;;5011016;28;20457;-70
2022/01/22 03:10:37;;;;;;;12.15;11.23;;;0.20;99.90;;;;;;5009175;28;20042;-70
2022/01/22 03:16:10;;;;;;;11.60;10.73;;;0.20;99.90;;;;;;5012051;28;20045;-69
2022/01/22 03:18:46;;;;;;;11.82;10.75;;;0.30;99.90;;;;;;4976352;28;20403;-70
2022/01/22 03:21:29;;;;;;;14.95;13.82;;;0.30;99.90;;;;;;4993508;28;20080;-70
2022/01/22 03:29:34;;;;;;;10.13;9.23;;;0.30;99.90;;;;;;4992742;28;20129;-70
2022/01/22 03:32:05;;;;;;;9.93;9.13;;;0.20;99.90;;;;;;5011312;28;20057;-70
2022/01/22 03:34:38;;;;;;;10.10;9.30;;;0.30;99.90;;;;;;4994715;28;20046;-70
2022/01/22 03:37:06;;;;;;;11.38;10.25;;;0.20;99.90;;;;;;4990638;28;20414;-70
2022/01/22 03:39:34;;;;;;;11.13;9.10;;;0.30;99.90;;;;;;4974361;28;20578;-70
2022/01/22 03:42:02;;;;;;;16.70;15.60;;;0.30;99.90;;;;;;4992233;28;20046;-70
2022/01/22 03:44:30;;;;;;;21.27;19.75;;;0.30;99.90;;;;;;5005331;28;20049;-70
2022/01/22 03:47:00;;;;;;;11.18;10.20;;;0.30;99.90;;;;;;4996171;28;20054;-70
2022/01/22 03:49:27;;;;;;;12.02;10.95;;;0.20;99.90;;;;;;4993788;28;20431;-70
2022/01/22 03:51:54;;;;;;;11.43;10.52;;;0.20;99.90;;;;;;5010940;28;20104;-73
2022/01/22 03:54:22;;;;;;;11.73;10.82;;;0.20;99.90;;;;;;5011619;28;20050;-73
2022/01/22 03:56:51;;;;;;;24.65;22.95;;;0.20;99.90;;;;;;4991143;28;20073;-73
2022/01/22 03:59:27;;;;;;;11.65;10.85;;;0.20;99.90;;;;;;5009902;28;20104;-72
2022/01/22 04:05:22;;;;;;;12.45;11.40;;;0.20;99.90;;;;;;4965280;28;20049;-73
2022/01/22 04:10:43;;;;;;;12.25;11.35;;;0.20;99.90;;;;;;4989961;28;20185;-73
2022/01/22 04:13:14;;;;;;;12.70;11.52;;;0.20;99.90;;;;;;4992307;28;20071;-73
2022/01/22 04:15:42;;;;;;;12.73;11.57;;;0.20;99.90;;;;;;5009920;28;20140;-73
2022/01/22 04:26:36;;;;;;;20.85;19.50;;;0.20;99.90;;;;;;5008013;28;20099;-73
2022/01/22 04:29:04;;;;;;;12.98;11.82;;;0.20;99.90;;;;;;5010036;28;20064;-73
2022/01/22 04:31:32;;;;;;;11.38;10.38;;;0.20;99.90;;;;;;5010448;28;20081;-73
2022/01/22 04:34:01;;;;;;;11.63;10.57;;;0.30;99.90;;;;;;5007821;28;20053;-73
2022/01/22 04:36:29;;;;;;;11.95;10.93;;;0.30;99.90;;;;;;5010416;28;20046;-73
2022/01/22 04:38:56;;;;;;;11.15;10.15;;;0.30;99.90;;;;;;4993699;28;20060;-73
2022/01/22 04:41:23;;;;;;;25.52;23.42;;;0.30;99.90;;;;;;5011236;28;20595;-73
2022/01/22 04:43:57;;;;;;;11.43;10.50;;;0.30;99.90;;;;;;5010040;28;20485;-72
2022/01/22 04:46:38;;;;;;;10.95;10.15;;;0.30;99.90;;;;;;5009621;28;20077;-73
2022/01/22 04:49:11;;;;;;;11.63;10.45;;;0.30;99.90;;;;;;4977324;28;20054;-72
2022/01/22 04:57:11;;;;;;;52.78;48.58;;;0.30;99.90;;;;;;4989749;28;20409;-72
2022/01/22 04:59:38;;;;;;;9.18;8.48;;;0.30;99.90;;;;;;4992978;28;20415;-72
2022/01/22 05:02:06;;;;;;;9.73;8.82;;;0.20;99.90;;;;;;5007810;28;20085;-75
2022/01/22 05:04:46;;;;;;;10.55;9.75;;;0.30;99.90;;;;;;4991499;28;20445;-72
2022/01/22 05:07:34;;;;;;;10.77;9.85;;;0.30;99.90;;;;;;4987956;28;20058;-73
2022/01/22 05:10:25;;;;;;;10.60;9.70;;;0.30;99.90;;;;;;4981436;28;20135;-72
2022/01/22 05:12:54;;;;;;;12.35;11.52;;;0.30;99.90;;;;;;4992069;28;20387;-72
2022/01/22 05:15:22;;;;;;;11.38;10.48;;;0.20;99.90;;;;;;5013878;28;20042;-74
2022/01/22 05:17:50;;;;;;;9.80;9.30;;;0.30;99.90;;;;;;4990711;28;20144;-74
2022/01/22 05:20:25;;;;;;;11.57;10.77;;;0.20;99.90;;;;;;4978535;28;20053;-74
2022/01/22 05:23:01;;;;;;;10.65;9.90;;;0.20;99.90;;;;;;5006271;28;20104;-74
2022/01/22 05:25:34;;;;;;;11.15;10.45;;;0.20;99.90;;;;;;5008800;28;20060;-74
2022/01/22 05:28:14;;;;;;;12.15;11.35;;;0.20;99.90;;;;;;5004370;28;20081;-74
2022/01/22 05:31:05;;;;;;;11.63;10.77;;;0.20;99.90;;;;;;5015593;28;20046;-75
2022/01/22 05:37:01;;;;;;;10.18;9.38;;;0.10;99.90;;;;;;4971771;28;20053;-75
2022/01/22 05:39:30;;;;;;;;;;;0.10;99.90;;;;;;4974736;28;20053;-76
2022/01/22 05:42:00;;;;;;;11.48;10.88;;;0.10;99.90;;;;;;4995050;28;20392;-76
2022/01/22 05:44:28;;;;;;;10.98;10.27;;;0.10;99.90;;;;;;4994043;28;20046;-75
2022/01/22 05:46:58;;;;;;;12.30;11.20;;;0.10;99.90;;;;;;5008908;28;20060;-75
2022/01/22 05:49:28;;;;;;;11.40;10.57;;;0.10;99.90;;;;;;4994057;28;20088;-77
2022/01/22 05:51:58;;;;;;;11.27;10.65;;;0.10;99.90;;;;;;5006490;28;20050;-76
2022/01/22 05:54:51;;;;;;;14.20;13.10;;;0.10;99.90;;;;;;5012604;28;20085;-75
2022/01/22 06:00:09;;;;;;;11.75;10.98;;;0.10;99.90;;;;;;5012048;28;20049;-76
2022/01/22 06:02:47;;;;;;;18.60;17.58;;;0.10;99.90;;;;;;5009161;28;20060;-76
2022/01/22 06:05:19;;;;;;;10.25;9.65;;;0.00;99.90;;;;;;4995781;28;20069;-76
2022/01/22 06:07:47;;;;;;;13.63;12.57;;;0.00;99.90;;;;;;4993565;28;20492;-77
2022/01/22 06:10:18;;;;;;;10.35;9.63;;;0.00;99.90;;;;;;4975994;28;20112;-77
2022/01/22 06:12:58;;;;;;;9.95;9.20;;;0.00;99.90;;;;;;5018584;28;20108;-77
2022/01/22 06:15:29;;;;;;;28.40;26.70;;;0.00;99.90;;;;;;4977272;28;20041;-76
2022/01/22 06:18:17;;;;;;;6.68;6.22;;;0.00;99.90;;;;;;5020516;28;20498;-77
2022/01/22 06:20:46;;;;;;;8.48;7.78;;;-0.10;99.90;;;;;;5002240;28;20574;-75
2022/01/22 06:23:18;;;;;;;8.57;8.18;;;-0.10;99.90;;;;;;4977647;28;20189;-76
2022/01/22 06:25:48;;;;;;;8.63;7.80;;;0.00;99.90;;;;;;4999386;28;20057;-74
2022/01/22 06:28:16;;;;;;;8.25;7.85;;;0.00;99.90;;;;;;5011704;28;20108;-75
2022/01/22 06:30:46;;;;;;;8.57;8.00;;;0.00;99.90;;;;;;4995028;28;20077;-75
2022/01/22 06:33:14;;;;;;;8.25;7.75;;;0.00;99.90;;;;;;4993705;28;20108;-75
2022/01/22 06:35:41;;;;;;;8.98;8.10;;;0.00;99.90;;;;;;5006676;28;20046;-77
2022/01/22 06:38:09;;;;;;;8.45;7.95;;;-0.10;99.90;;;;;;4997599;28;20068;-76
2022/01/22 06:44:17;;;;;;;9.18;8.55;;;-0.10;99.90;;;;;;4999824;28;20053;-76
2022/01/22 06:46:53;;;;;;;8.20;7.63;;;0.00;99.90;;;;;;5020130;28;20537;-75
2022/01/22 06:49:53;;;;;;;8.38;7.88;;;0.00;99.90;;;;;;4983104;28;20530;-76
2022/01/22 06:52:40;;;;;;;8.00;7.50;;;0.00;99.90;;;;;;5009850;28;20426;-77
2022/01/22 06:55:16;;;;;;;13.77;13.00;;;0.00;99.90;;;;;;5011155;28;20053;-77
2022/01/22 06:57:46;;;;;;;8.32;7.82;;;0.00;99.90;;;;;;5008937;28;20053;-77
2022/01/22 07:00:22;;;;;;;9.20;8.55;;;0.00;99.90;;;;;;5006056;28;20041;-77
2022/01/22 07:03:00;;;;;;;9.68;8.90;;;0.10;99.90;;;;;;5008323;28;20081;-77
2022/01/22 07:05:27;;;;;;;9.20;8.65;;;0.10;99.90;;;;;;5015735;28;20049;-77
2022/01/22 07:08:05;;;;;;;8.65;8.00;;;0.10;99.90;;;;;;5014305;28;20413;-78
2022/01/22 07:10:36;;;;;;;9.30;8.40;;;0.10;99.90;;;;;;5009095;28;20046;-78
2022/01/22 07:13:05;;;;;;;8.80;8.10;;;0.10;99.90;;;;;;4976568;28;20037;-77
2022/01/22 07:15:33;;;;;;;36.03;33.58;;;0.10;99.90;;;;;;4992793;28;20052;-77
2022/01/22 07:18:12;;;;;;;10.65;9.95;;;0.10;99.90;;;;;;4989997;28;20054;-78
2022/01/22 07:20:41;;;;;;;12.60;11.93;;;0.10;99.90;;;;;;4974412;28;20081;-80
2022/01/22 07:23:20;;;;;;;12.02;11.23;;;0.10;99.90;;;;;;5008822;28;20045;-80
2022/01/22 07:26:01;;;;;;;11.18;10.25;;;0.10;99.90;;;;;;4990596;28;20589;-80
2022/01/22 07:28:56;;;;;;;11.52;10.82;;;0.00;99.90;;;;;;5003064;28;20065;-77
2022/01/22 07:31:26;;;;;;;13.88;12.93;;;0.00;99.90;;;;;;5010641;28;20469;-78
2022/01/22 07:33:55;;;;;;;7.63;5.65;;;0.00;99.90;;;;;;4991768;28;20054;-78
2022/01/22 07:36:22;;;;;;;5.90;5.40;;;0.00;99.90;;;;;;4990546;28;20522;-78
2022/01/22 07:38:50;;;;;;;7.43;6.47;;;0.00;99.90;;;;;;4990544;28;20053;-78
2022/01/22 07:41:18;;;;;;;8.27;7.28;;;0.10;99.90;;;;;;4992832;28;20046;-77
2022/01/22 07:43:57;;;;;;;7.30;6.60;;;0.10;99.90;;;;;;4974571;28;20119;-77
2022/01/22 07:46:28;;;;;;;7.88;6.97;;;0.10;99.90;;;;;;4989571;28;20046;-76
2022/01/22 07:49:02;;;;;;;19.35;18.05;;;0.20;99.90;;;;;;4969819;28;20043;-78
2022/01/22 07:51:29;;;;;;;11.05;10.13;;;0.20;99.90;;;;;;5009948;28;20153;-77
2022/01/22 07:53:57;;;;;;;9.35;8.55;;;0.20;99.90;;;;;;4991507;28;20041;-76
2022/01/22 07:56:29;;;;;;;11.27;10.18;;;0.10;99.90;;;;;;4993596;28;20125;-75
2022/01/22 07:59:00;;;;;;;10.43;9.52;;;0.20;99.90;;;;;;4992045;28;20108;-75
2022/01/22 08:01:31;;;;;;;11.45;10.57;;;0.20;99.90;;;;;;4990942;28;20050;-76
2022/01/22 08:04:17;;;;;;;11.05;10.25;;;0.20;99.90;;;;;;5007340;28;20049;-76
2022/01/22 08:07:06;;;;;;;12.13;11.02;;;0.20;99.90;;;;;;5005151;28;20390;-75
2022/01/22 08:09:52;;;;;;;11.23;10.15;;;0.20;99.90;;;;;;5007615;28;20074;-76
2022/01/22 08:12:25;;;;;;;;;;;0.30;99.90;;;;;;4990730;28;20048;-76
2022/01/22 08:15:00;;;;;;;;;;;0.30;99.90;;;;;;4989052;28;19964;-78
2022/01/22 08:17:28;;;;;;;520.80;267.80;;;0.30;99.90;;;;;;5004346;28;19925;-78
2022/01/22 08:19:55;;;;;;;36.30;33.97;;;0.30;99.90;;;;;;4989744;28;20050;-77
2022/01/22 08:22:53;;;;;;;47.05;44.33;;;0.20;99.90;;;;;;4954348;28;20043;-77
2022/01/22 08:25:35;;;;;;;8.38;5.40;;;0.20;99.90;;;;;;5004894;28;20050;-79
2022/01/22 08:31:17;;;;;;;12.50;11.35;;;0.30;99.90;;;;;;5023097;28;20042;-75
2022/01/22 08:36:29;;;;;;;10.38;9.50;;;0.30;99.90;;;;;;5003693;28;20061;-76
2022/01/22 08:38:57;;;;;;;11.18;10.02;;;0.30;99.90;;;;;;4985929;28;20081;-77
2022/01/22 08:41:27;;;;;;;11.27;10.35;;;0.30;99.90;;;;;;5006634;28;20475;-77
2022/01/22 08:43:57;;;;;;;12.32;11.05;;;0.40;99.90;;;;;;4987285;28;20050;-78
2022/01/22 08:46:27;;;;;;;11.07;9.48;;;0.30;99.90;;;;;;4973005;28;20074;-77
2022/01/22 08:48:55;;;;;;;56.33;51.47;;;0.40;99.90;;;;;;4989383;28;20100;-77
2022/01/22 08:51:25;;;;;;;9.25;4.68;;;0.40;99.90;;;;;;5019766;28;20052;-77
2022/01/22 08:53:55;;;;;;;19.63;17.65;;;0.40;99.90;;;;;;5004502;28;20073;-77
2022/01/22 08:56:23;;;;;;;23.40;21.40;;;0.40;99.90;;;;;;4971594;28;20430;-77
2022/01/22 08:58:51;;;;;;;9.88;6.53;;;0.40;99.90;;;;;;4987312;28;20045;-77
2022/01/22 09:01:26;;;;;;;9.02;7.18;;;0.40;99.90;;;;;;5002662;28;20093;-77
2022/01/22 09:03:57;;;;;;;8.18;6.97;;;0.40;99.90;;;;;;5005770;28;20050;-74
2022/01/22 09:06:43;;;;;;;10.45;9.45;;;0.40;99.90;;;;;;4989977;28;20077;-75
2022/01/22 09:09:36;;;;;;;8.20;7.25;;;0.40;99.90;;;;;;4990465;28;20081;-75
2022/01/22 09:12:21;;;;;;;9.98;9.05;;;0.40;99.90;;;;;;5022273;28;20100;-71
2022/01/22 09:15:05;;;;;;;7.95;7.15;;;0.40;99.90;;;;;;4991833;28;20056;-72
2022/01/22 09:17:35;;;;;;;7.78;6.97;;;0.50;99.90;;;;;;5010142;28;20046;-74
2022/01/22 09:20:09;;;;;;;38.20;34.35;;;0.50;99.90;;;;;;4971927;28;20052;-75
2022/01/22 09:22:37;;;;;;;22.98;21.05;;;0.50;99.90;;;;;;4993237;28;20112;-76
2022/01/22 09:25:07;;;;;;;10.27;8.15;;;0.50;99.90;;;;;;5011749;28;20049;-76
2022/01/22 09:27:34;;;;;;;9.10;8.30;;;0.40;99.90;;;;;;4996788;28;20049;-77
2022/01/22 09:30:02;;;;;;;11.13;8.18;;;0.50;99.90;;;;;;4987497;28;20521;-76
2022/01/22 09:32:30;;;;;;;9.27;7.93;;;0.50;99.90;;;;;;4993672;28;20502;-76
2022/01/22 09:35:02;;;;;;;9.18;8.23;;;0.50;99.90;;;;;;4992801;28;20042;-77
2022/01/22 09:37:44;;;;;;;16.30;14.70;;;0.50;99.90;;;;;;4976091;28;20050;-76
2022/01/22 09:40:33;;;;;;;21.52;19.55;;;0.50;99.90;;;;;;4999532;28;20106;-77
2022/01/22 09:43:26;;;;;;;7.97;5.95;;;0.50;99.90;;;;;;4991055;28;20050;-77
2022/01/22 09:46:17;;;;;;;12.20;11.07;;;0.50;99.90;;;;;;4997641;28;20076;-76
2022/01/22 09:49:03;;;;;;;9.35;8.38;;;0.50;99.90;;;;;;4989819;28;20052;-77
2022/01/22 09:51:53;;;;;;;11.57;9.70;;;0.50;99.90;;;;;;4979641;28;20046;-77
2022/01/22 09:54:56;;;;;;;10.77;8.75;;;0.60;99.90;;;;;;4944059;29;20043;-78
2022/01/22 09:57:26;;;;;;;9.85;8.95;;;0.60;99.90;;;;;;4995499;28;20545;-77
2022/01/22 10:00:22;;;;;;;11.80;9.38;;;0.50;99.90;;;;;;5008595;28;20060;-74
2022/01/22 10:02:58;;;;;;;10.05;9.07;;;0.60;99.90;;;;;;4975053;28;20522;-74
2022/01/22 10:05:43;;;;;;;8.98;8.10;;;0.60;99.90;;;;;;5018234;28;20149;-77
2022/01/22 10:08:34;;;;;;;9.63;8.18;;;0.70;99.90;;;;;;4975056;28;20050;-75
2022/01/22 10:11:22;;;;;;;14.13;8.55;;;0.70;99.90;;;;;;5006748;28;20103;-75
2022/01/22 10:14:10;;;;;;;8.27;6.55;;;0.70;99.90;;;;;;4991141;28;20149;-74
2022/01/22 10:16:40;;;;;;;8.95;7.65;;;0.80;99.90;;;;;;5005725;28;20061;-77
2022/01/22 10:19:15;;;;;;;10.73;8.82;;;0.80;99.90;;;;;;5007627;28;20054;-77
2022/01/22 10:21:46;;;;;;;11.15;9.55;;;0.70;99.90;;;;;;5010871;28;20125;-76
2022/01/22 10:24:38;;;;;;;12.95;7.82;;;0.70;99.90;;;;;;5007793;28;20167;-77
2022/01/22 10:27:26;;;;;;;32.85;29.73;;;0.70;99.90;;;;;;5007608;28;20593;-77
2022/01/22 10:29:58;;;;;;;16.85;7.93;;;0.80;99.90;;;;;;5010102;28;20042;-77
2022/01/22 10:32:37;;;;;;;11.02;8.30;;;0.80;99.90;;;;;;5009848;28;20050;-81
2022/01/22 10:35:29;;;;;;;8.68;7.15;;;0.80;99.90;;;;;;5007331;28;20052;-78
2022/01/22 10:38:40;;;;;;;9.32;7.68;;;0.80;99.90;;;;;;4991858;28;20177;-75
2022/01/22 10:41:09;;;;;;;10.77;7.50;;;0.80;99.90;;;;;;5009188;28;20513;-80
2022/01/22 10:43:42;;;;;;;10.13;7.82;;;0.80;99.90;;;;;;5006452;28;20412;-80
2022/01/22 10:46:14;;;;;;;;;;;0.80;99.90;;;;;;5024507;28;20417;-78
2022/01/22 10:48:54;;;;;;;9.98;7.90;;;0.80;99.90;;;;;;4990406;28;19930;-79
2022/01/22 10:51:22;;;;;;;10.80;8.15;;;0.80;99.90;;;;;;5008928;28;20141;-77
2022/01/22 10:53:56;;;;;;;9.43;7.00;;;0.80;99.90;;;;;;5006613;28;20371;-80
2022/01/22 10:56:27;;;;;;;11.20;6.93;;;0.80;99.90;;;;;;4991815;28;20058;-79
2022/01/22 10:59:05;;;;;;;29.75;8.98;;;0.80;99.90;;;;;;4991613;28;20124;-77
2022/01/22 11:01:47;;;;;;;10.00;7.10;;;0.80;99.90;;;;;;4989714;28;20148;-80
2022/01/22 11:04:19;;;;;;;12.43;7.45;;;0.80;99.90;;;;;;4991131;28;20054;-78
2022/01/22 11:06:54;;;;;;;12.95;7.47;;;0.80;99.90;;;;;;5009846;28;20054;-80
2022/01/22 11:09:24;;;;;;;15.60;13.90;;;0.80;99.90;;;;;;5010849;28;20064;-81
2022/01/22 11:11:54;;;;;;;13.25;7.50;;;0.80;99.90;;;;;;5003566;28;20054;-79
2022/01/22 11:14:21;;;;;;;14.90;12.00;;;0.80;99.90;;;;;;5002322;28;20054;-81
2022/01/22 11:16:52;;;;;;;14.57;13.13;;;0.80;99.90;;;;;;5011749;28;20132;-80
2022/01/22 11:19:23;;;;;;;10.23;8.70;;;0.80;99.90;;;;;;5010958;28;20054;-80
2022/01/22 11:21:54;;;;;;;25.25;9.73;;;0.80;99.90;;;;;;4997111;28;20046;-79
2022/01/22 11:24:25;;;;;;;11.75;7.45;;;0.80;99.90;;;;;;5001805;28;20068;-79
2022/01/22 11:26:56;;;;;;;9.13;7.63;;;0.80;99.90;;;;;;5011303;28;20779;-78
2022/01/22 11:29:29;;;;;;;11.00;8.75;;;0.70;99.90;;;;;;5009221;28;20117;-80
2022/01/22 11:32:06;;;;;;;11.27;8.30;;;0.70;99.90;;;;;;4990360;28;20054;-78
2022/01/22 11:34:38;;;;;;;13.63;8.60;;;0.60;99.90;;;;;;5002407;28;20046;-81
2022/01/22 11:37:15;;;;;;;11.48;9.18;;;0.50;99.90;;;;;;5010066;28;20392;-77
2022/01/22 11:39:42;;;;;;;10.30;8.23;;;0.50;99.90;;;;;;5008502;28;20049;-77
2022/01/22 11:42:11;;;;;;;10.77;8.52;;;0.60;99.90;;;;;;5009996;28;20045;-79
2022/01/22 11:44:47;;;;;;;13.45;8.85;;;0.60;99.90;;;;;;5008240;28;20550;-78
2022/01/22 11:47:20;;;;;;;15.93;8.32;;;0.60;99.90;;;;;;4992053;28;20073;-80
2022/01/22 11:50:07;;;;;;;10.50;8.93;;;0.60;99.90;;;;;;4971945;28;20439;-77
2022/01/22 11:52:37;;;;;;;10.85;8.88;;;0.60;99.90;;;;;;5002055;28;20054;-80
2022/01/22 11:55:11;;;;;;;19.90;18.05;;;0.50;99.90;;;;;;5005032;28;20060;-75
2022/01/22 11:57:43;;;;;;;13.32;8.77;;;0.50;99.90;;;;;;4990453;28;20061;-77
2022/01/22 12:00:26;;;;;;;11.85;8.80;;;0.50;99.90;;;;;;5010264;28;20103;-77
2022/01/22 12:03:21;;;;;;;12.00;9.15;;;0.50;99.90;;;;;;5007825;28;20045;-78
2022/01/22 12:06:10;;;;;;;11.68;9.32;;;0.50;99.90;;;;;;5000518;28;20092;-77
2022/01/22 12:09:12;;;;;;;13.02;8.52;;;0.50;99.90;;;;;;4986376;28;20054;-77
2022/01/22 12:14:55;;;;;;;12.43;9.88;;;0.50;99.90;;;;;;5005478;28;20109;-76
2022/01/22 12:18:04;;;;;;;9.50;8.55;;;0.40;99.90;;;;;;4972316;28;20074;-77
2022/01/22 12:23:51;;;;;;;13.45;11.82;;;0.30;99.90;;;;;;5007433;28;20057;-77
2022/01/22 12:26:43;;;;;;;13.65;9.70;;;0.30;99.90;;;;;;5008003;28;20053;-78
2022/01/22 12:29:41;;;;;;;14.33;10.90;;;0.20;99.90;;;;;;5008821;28;20137;-77
2022/01/22 12:32:15;;;;;;;16.58;11.00;;;0.20;99.90;;;;;;5005171;28;20441;-74
2022/01/22 12:34:59;;;;;;;17.63;11.48;;;0.10;99.90;;;;;;5007620;28;20054;-76
2022/01/22 12:37:29;;;;;;;16.30;12.65;;;0.00;99.90;;;;;;5009672;28;20414;-77
2022/01/22 12:39:58;;;;;;;17.42;12.93;;;0.00;99.90;;;;;;5006649;28;20091;-77
2022/01/22 12:42:55;;;;;;;19.45;13.05;;;0.00;99.90;;;;;;5008421;28;20076;-77
2022/01/22 12:45:26;;;;;;;15.10;11.85;;;0.00;99.90;;;;;;4991255;28;20474;-76
2022/01/22 12:47:55;;;;;;;16.58;13.10;;;-0.10;99.90;;;;;;5012960;28;20054;-79
2022/01/22 12:50:30;;;;;;;18.13;14.40;;;-0.10;99.90;;;;;;5010430;28;20038;-78
2022/01/22 12:53:08;;;;;;;16.08;13.32;;;-0.10;99.90;;;;;;5008145;28;20048;-77
2022/01/22 12:58:42;;;;;;;15.10;12.45;;;-0.10;99.90;;;;;;5009688;28;20049;-77
2022/01/22 13:01:17;;;;;;;15.75;12.57;;;-0.10;99.90;;;;;;5011172;28;20137;-77
2022/01/22 13:03:49;;;;;;;15.43;12.10;;;-0.20;99.90;;;;;;5009748;28;20142;-76
2022/01/22 13:06:17;;;;;;;17.38;12.98;;;-0.20;99.90;;;;;;5011745;28;20046;-76
2022/01/22 13:09:11;;;;;;;18.48;11.60;;;-0.30;99.90;;;;;;4979376;28;20080;-76
2022/01/22 13:11:46;;;;;;;14.55;10.77;;;-0.40;99.90;;;;;;5010419;28;20061;-78
2022/01/22 13:14:17;;;;;;;21.63;11.45;;;-0.40;99.90;;;;;;4993730;28;20053;-77
2022/01/22 13:16:50;;;;;;;18.85;12.57;;;-0.50;99.90;;;;;;4990822;28;20050;-77
2022/01/22 13:19:19;;;;;;;28.23;13.60;;;-0.50;99.90;;;;;;5003569;28;20149;-77
2022/01/22 13:21:53;;;;;;;21.85;13.10;;;-0.50;99.90;;;;;;4973236;28;20051;-77
2022/01/22 13:24:25;;;;;;;23.35;14.38;;;-0.50;99.90;;;;;;5004772;28;20092;-77
2022/01/22 13:26:58;;;;;;;21.02;14.32;;;-0.60;99.90;;;;;;4994567;28;20107;-76
2022/01/22 13:29:30;;;;;;;20.38;12.40;;;-0.60;99.90;;;;;;5012445;28;20046;-76
2022/01/22 13:32:02;;;;;;;43.35;39.40;;;-0.60;99.90;;;;;;5013781;28;20568;-77
2022/01/22 13:34:41;;;;;;;26.50;15.93;;;-0.60;99.90;;;;;;5012489;28;20502;-76
2022/01/22 13:40:26;;;;;;;28.27;13.98;;;-0.80;99.90;;;;;;5007477;28;20538;-77
2022/01/22 13:48:38;;;;;;;26.35;13.27;;;-0.90;99.90;;;;;;4981033;28;20081;-77
2022/01/22 13:51:08;;;;;;;26.25;13.15;;;-1.00;99.90;;;;;;4995901;28;20248;-77
2022/01/22 13:53:39;;;;;;;31.77;15.40;;;-0.90;99.90;;;;;;4993855;28;20498;-77
2022/01/22 13:56:11;;;;;;;25.15;13.85;;;-1.00;99.90;;;;;;5000303;28;20042;-78
2022/01/22 13:58:39;;;;;;;27.37;13.97;;;-1.00;99.90;;;;;;5010002;28;20049;-77
2022/01/22 14:01:18;;;;;;;22.88;12.80;;;-1.10;99.90;;;;;;4992939;28;20053;-77
2022/01/22 14:04:06;;;;;;;21.83;12.23;;;-1.10;99.90;;;;;;4987842;28;20148;-77
2022/01/22 14:06:35;;;;;;;19.98;12.30;;;-1.20;99.90;;;;;;4992634;28;20522;-76
2022/01/22 14:09:17;;;;;;;25.85;13.43;;;-1.40;99.90;;;;;;4968042;28;20510;-77
2022/01/22 14:12:10;;;;;;;21.10;13.00;;;-1.50;99.90;;;;;;5011471;28;20218;-76
2022/01/22 14:14:59;;;;;;;23.00;12.95;;;-1.60;99.90;;;;;;4980747;28;20073;-76
2022/01/22 14:17:31;;;;;;;47.00;14.75;;;-1.70;99.90;;;;;;4990484;28;20062;-76
2022/01/22 14:20:02;;;;;;;19.40;9.55;;;-1.80;99.90;;;;;;5009408;28;20058;-75
2022/01/22 14:22:53;;;;;;;19.00;9.27;;;-1.90;99.90;;;;;;4992519;28;20140;-77
2022/01/22 14:25:25;;;;;;;;;;;-2.00;99.90;;;;;;5027650;28;20400;-77
2022/01/22 14:28:00;;;;;;;16.38;9.75;;;-2.00;99.90;;;;;;5011042;28;20301;-76
2022/01/22 14:30:36;;;;;;;14.13;8.38;;;-2.10;99.90;;;;;;5009963;28;20606;-78
2022/01/22 14:33:05;;;;;;;14.65;8.40;;;-2.00;99.90;;;;;;5009044;28;20422;-79
2022/01/22 14:35:36;;;;;;;21.13;9.93;;;-2.10;99.90;;;;;;5011242;28;20141;-76
2022/01/22 14:38:39;;;;;;;17.70;10.10;;;-2.10;99.90;;;;;;5009369;28;20046;-80
2022/01/22 14:46:55;;;;;;;15.32;9.25;;;-2.10;99.90;;;;;;5008999;28;20053;-80
2022/01/22 14:49:30;;;;;;;18.73;9.55;;;-2.20;99.90;;;;;;4970258;28;20046;-81
2022/01/22 14:51:59;;;;;;;16.92;9.65;;;-2.10;99.90;;;;;;5011995;28;20053;-79